createdAt,value
2022-09-07T00:00:53.121Z,84.82
2022-09-07T00:03:42.888Z,85.16
2022-09-07T00:06:35.921Z,84.53
2022-09-07T00:09:25.607Z,84.28
2022-09-07T00:12:15.532Z,83.83
2022-09-07T00:15:09.728Z,82.29
2022-09-07T00:17:59.421Z,81.75
2022-09-07T00:20:49.457Z,81.16
2022-09-07T00:23:40.613Z,80.05
2022-09-07T00:26:32.596Z,79.13
2022-09-07T00:29:21.792Z,79.09
2022-09-07T00:32:11.851Z,77.90
2022-09-07T00:35:02.163Z,76.46
2022-09-07T00:37:51.858Z,75.12
2022-09-07T00:40:42.377Z,75.64
2022-09-07T00:43:40.727Z,75.40
2022-09-07T00:46:34.591Z,75.76
2022-09-07T00:49:25.173Z,75.78
2022-09-07T00:52:15.831Z,74.60
2022-09-07T00:55:09.957Z,74.63
2022-09-07T00:57:59.789Z,74.22
2022-09-07T01:00:52.171Z,74.46
2022-09-07T01:03:46.302Z,73.74
2022-09-07T01:06:39.483Z,73.07
2022-09-07T01:09:30.128Z,72.37
2022-09-07T01:12:20.864Z,71.63
2022-09-07T01:15:14.284Z,71.07
2022-09-07T01:18:12.341Z,70.96
2022-09-07T01:21:45.512Z,70.99
2022-09-07T01:24:35.409Z,71.79
2022-09-07T01:28:00.555Z,74.11
2022-09-07T01:31:13.582Z,73.94
2022-09-07T01:34:25.783Z,74.58
2022-09-07T01:37:23.510Z,74.36
2022-09-07T01:40:30.880Z,74.57
2022-09-07T01:43:52.715Z,74.82
2022-09-07T01:46:53.626Z,74.29
2022-09-07T01:50:01.147Z,74.21
2022-09-07T01:53:16.649Z,73.65
2022-09-07T01:56:15.429Z,74.05
2022-09-07T01:59:30.637Z,74.23
2022-09-07T02:02:26.092Z,73.85
2022-09-07T02:05:27.388Z,73.97
2022-09-07T02:08:27.130Z,74.08
2022-09-07T02:11:23.108Z,74.80
2022-09-07T02:14:24.892Z,74.40
2022-09-07T02:17:20.185Z,73.06
2022-09-07T02:20:23.256Z,72.73
2022-09-07T02:23:21.172Z,72.10
2022-09-07T02:26:18.841Z,72.46
2022-09-07T02:29:09.252Z,71.78
2022-09-07T02:31:58.688Z,71.93
2022-09-07T02:34:49.247Z,72.66
2022-09-07T02:37:39.539Z,72.90
2022-09-07T02:40:28.949Z,71.96
2022-09-07T02:43:21.066Z,71.77
2022-09-07T02:46:28.546Z,71.99
2022-09-07T02:49:36.127Z,70.91
2022-09-07T02:52:58.227Z,71.00
2022-09-07T02:56:01.578Z,71.71
2022-09-07T02:59:15.467Z,71.01
2022-09-07T03:02:29.334Z,70.73
2022-09-07T03:05:44.008Z,70.56
2022-09-07T03:08:38.801Z,70.55
2022-09-07T03:11:28.840Z,70.16
2022-09-07T03:14:22.158Z,69.53
2022-09-07T03:17:14.621Z,69.84
2022-09-07T03:20:04.649Z,68.94
2022-09-07T03:22:55.707Z,69.53
2022-09-07T03:25:45.917Z,69.30
2022-09-07T03:28:35.355Z,69.00
2022-09-07T03:31:25.505Z,69.65
2022-09-07T03:34:16.012Z,69.80
2022-09-07T03:37:05.814Z,69.46
2022-09-07T03:39:55.455Z,69.70
2022-09-07T03:42:45.480Z,69.60
2022-09-07T03:45:38.389Z,68.80
2022-09-07T03:48:30.098Z,69.11
2022-09-07T03:51:22.860Z,69.00
2022-09-07T03:54:12.741Z,68.07
2022-09-07T03:57:02.167Z,68.88
2022-09-07T03:59:52.367Z,68.84
2022-09-07T04:02:42.143Z,69.08
2022-09-07T04:05:31.572Z,68.04
2022-09-07T04:08:21.824Z,67.84
2022-09-07T04:11:14.300Z,68.17
2022-09-07T04:14:04.668Z,67.89
2022-09-07T04:16:55.040Z,67.38
2022-09-07T04:19:44.802Z,67.11
2022-09-07T04:22:34.505Z,66.30
2022-09-07T04:25:24.795Z,66.53
2022-09-07T04:28:14.640Z,65.85
2022-09-07T04:31:04.754Z,66.53
2022-09-07T04:33:55.309Z,65.18
2022-09-07T04:36:45.630Z,65.44
2022-09-07T04:39:35.823Z,65.54
2022-09-07T04:42:27.121Z,65.85
2022-09-07T04:45:17.546Z,65.12
2022-09-07T04:48:07.942Z,65.66
2022-09-07T04:50:58.077Z,65.14
2022-09-07T04:53:52.869Z,65.42
2022-09-07T04:56:42.781Z,65.04
2022-09-07T04:59:32.549Z,65.08
2022-09-07T05:02:24.843Z,64.47
2022-09-07T05:05:14.929Z,63.78
2022-09-07T05:08:04.702Z,64.08
2022-09-07T05:10:56.078Z,64.15
2022-09-07T05:13:46.633Z,63.82
2022-09-07T05:16:36.553Z,64.53
2022-09-07T05:19:26.448Z,63.52
2022-09-07T05:22:18.801Z,63.33
2022-09-07T05:25:09.871Z,63.42
2022-09-07T05:27:59.846Z,63.03
2022-09-07T05:37:09.666Z,64.88
2022-09-07T05:40:00.240Z,64.74
2022-09-07T05:42:49.873Z,65.95
2022-09-07T05:45:39.199Z,65.92
2022-09-07T05:48:29.618Z,65.90
2022-09-07T05:51:19.609Z,66.05
2022-09-07T05:54:09.528Z,66.16
2022-09-07T05:56:59.320Z,65.58
2022-09-07T05:59:49.074Z,64.84
2022-09-07T06:02:39.889Z,64.36
2022-09-07T06:05:29.298Z,64.56
2022-09-07T06:08:19.494Z,63.71
2022-09-07T06:11:13.106Z,63.23
2022-09-07T06:14:03.174Z,63.16
2022-09-07T06:16:52.719Z,62.48
2022-09-07T06:19:42.217Z,62.12
2022-09-07T06:22:32.320Z,61.73
2022-09-07T06:25:22.835Z,61.32
2022-09-07T06:28:15.869Z,61.22
2022-09-07T06:31:10.632Z,61.14
2022-09-07T06:34:00.621Z,61.24
2022-09-07T06:36:50.085Z,61.33
2022-09-07T06:39:39.570Z,61.40
2022-09-07T06:42:29.326Z,61.10
2022-09-07T06:45:20.359Z,61.63
2022-09-07T06:48:10.257Z,61.67
2022-09-07T06:51:11.369Z,61.06
2022-09-07T06:57:16.161Z,60.40
2022-09-07T07:00:05.921Z,60.31
2022-09-07T07:02:55.680Z,59.71
2022-09-07T07:05:55.623Z,60.43
2022-09-07T07:08:45.756Z,60.04
2022-09-07T07:11:38.496Z,59.06
2022-09-07T07:14:29.938Z,59.61
2022-09-07T07:17:20.986Z,59.06
2022-09-07T07:20:11.508Z,58.80
2022-09-07T07:23:00.951Z,59.31
2022-09-07T07:25:51.083Z,58.90
2022-09-07T07:31:50.715Z,58.27
2022-09-07T07:34:40.260Z,58.41
2022-09-07T07:37:30.345Z,59.79
2022-09-07T07:40:26.508Z,59.51
2022-09-07T07:43:20.465Z,58.81
2022-09-07T07:46:10.524Z,59.01
2022-09-07T07:49:01.236Z,58.95
2022-09-07T07:55:01.786Z,59.26
2022-09-07T07:57:51.954Z,60.14
2022-09-07T08:00:54.157Z,60.83
2022-09-07T08:03:46.075Z,60.36
2022-09-07T08:06:35.780Z,61.38
2022-09-07T08:09:25.878Z,61.24
2022-09-07T08:12:20.437Z,61.05
2022-09-07T08:15:10.896Z,62.02
2022-09-07T08:18:00.817Z,62.19
2022-09-07T08:20:50.687Z,62.11
2022-09-07T08:23:41.207Z,62.17
2022-09-07T08:26:30.569Z,62.32
2022-09-07T08:29:21.986Z,61.79
2022-09-07T08:32:11.814Z,62.07
2022-09-07T08:35:01.828Z,62.67
2022-09-07T08:37:52.364Z,62.70
2022-09-07T08:40:41.814Z,62.82
2022-09-07T08:43:50.098Z,62.93
2022-09-07T08:46:44.351Z,63.60
2022-09-07T08:50:05.763Z,63.43
2022-09-07T08:52:58.659Z,63.29
2022-09-07T08:55:59.797Z,63.84
2022-09-07T08:58:54.985Z,64.00
2022-09-07T09:02:27.054Z,64.46
2022-09-07T09:08:23.245Z,64.13
2022-09-07T09:11:20.926Z,64.03
2022-09-07T09:14:48.674Z,64.34
2022-09-07T09:18:01.768Z,64.25
2022-09-07T09:20:59.686Z,64.71
2022-09-07T09:23:54.023Z,64.51
2022-09-07T09:26:46.339Z,64.35
2022-09-07T09:29:37.938Z,64.88
2022-09-07T09:32:42.801Z,65.36
2022-09-07T09:35:37.015Z,65.09
2022-09-07T09:38:41.191Z,65.74
2022-09-07T09:41:40.565Z,65.97
2022-09-07T09:44:36.073Z,64.81
2022-09-07T09:47:33.722Z,63.90
2022-09-07T09:53:55.272Z,64.48
2022-09-07T09:56:47.769Z,65.85
2022-09-07T10:06:18.596Z,65.07
2022-09-07T10:09:14.522Z,64.88
2022-09-07T10:12:06.471Z,64.76
2022-09-07T10:15:00.655Z,64.08
2022-09-07T10:17:53.466Z,63.70
2022-09-07T10:20:43.763Z,63.62
2022-09-07T10:23:34.337Z,63.52
2022-09-07T10:26:35.937Z,63.87
2022-09-07T10:29:36.983Z,63.72
2022-09-07T10:33:11.687Z,63.96
2022-09-07T10:36:16.540Z,63.93
2022-09-07T10:39:15.242Z,64.54
2022-09-07T10:42:07.696Z,64.23
2022-09-07T10:45:19.258Z,63.66
2022-09-07T10:48:33.535Z,63.43
2022-09-07T10:51:39.596Z,63.72
2022-09-07T10:54:38.558Z,63.90
2022-09-07T10:57:35.335Z,63.84
2022-09-07T11:00:27.195Z,64.13
2022-09-07T11:03:32.426Z,64.97
2022-09-07T11:06:34.485Z,66.03
2022-09-07T11:09:52.943Z,65.72
2022-09-07T11:12:43.882Z,65.75
2022-09-07T11:15:43.228Z,66.18
2022-09-07T11:18:37.734Z,66.20
2022-09-07T11:24:42.582Z,66.28
2022-09-07T11:28:21.116Z,65.88
2022-09-07T11:31:29.274Z,66.50
2022-09-07T11:34:37.846Z,65.66
2022-09-07T11:38:00.608Z,66.43
2022-09-07T11:41:09.063Z,67.64
2022-09-07T11:44:09.001Z,67.99
2022-09-07T11:47:10.328Z,68.12
2022-09-07T11:50:00.734Z,67.17
2022-09-07T11:53:18.548Z,67.05
2022-09-07T11:56:36.317Z,67.71
2022-09-07T11:59:40.021Z,67.34
2022-09-07T12:03:00.042Z,67.61
2022-09-07T12:05:53.548Z,66.81
2022-09-07T12:09:07.930Z,66.92
2022-09-07T12:12:31.845Z,66.67
2022-09-07T12:15:48.593Z,67.06
2022-09-07T12:18:41.749Z,67.50
2022-09-07T12:21:50.134Z,67.32
2022-09-07T12:24:42.524Z,67.44
2022-09-07T12:27:31.586Z,67.25
2022-09-07T12:30:22.012Z,67.70
2022-09-07T12:33:28.953Z,67.83
2022-09-07T12:36:31.755Z,67.93
2022-09-07T12:39:33.686Z,68.22
2022-09-07T12:42:37.452Z,67.78
2022-09-07T12:45:34.278Z,67.06
2022-09-07T12:48:39.146Z,65.84
2022-09-07T12:55:26.081Z,63.99
2022-09-07T12:58:26.863Z,64.34
2022-09-07T13:01:26.559Z,63.26
2022-09-07T13:04:38.372Z,62.44
2022-09-07T13:07:44.530Z,61.95
2022-09-07T13:10:37.432Z,60.94
2022-09-07T13:19:53.746Z,60.21
2022-09-07T13:22:46.075Z,60.70
2022-09-07T13:25:39.713Z,60.91
2022-09-07T13:28:30.066Z,60.25
2022-09-07T13:31:41.902Z,60.50
2022-09-07T13:34:34.099Z,59.95
2022-09-07T13:37:28.115Z,59.32
2022-09-07T13:40:27.517Z,58.46
2022-09-07T13:43:26.422Z,58.70
2022-09-07T13:46:28.815Z,58.09
2022-09-07T13:49:36.541Z,58.75
2022-09-07T13:53:04.626Z,59.12
2022-09-07T13:56:28.702Z,58.23
2022-09-07T13:59:21.785Z,58.34
2022-09-07T14:02:28.247Z,58.28
2022-09-07T14:05:21.800Z,58.24
2022-09-07T14:14:43.838Z,57.46
2022-09-07T14:17:33.007Z,57.33
2022-09-07T14:20:25.890Z,57.60
2022-09-07T14:23:31.853Z,58.00
2022-09-07T14:26:26.100Z,58.08
2022-09-07T14:29:24.892Z,58.33
2022-09-07T14:32:18.932Z,58.92
2022-09-07T14:35:17.939Z,60.27
2022-09-07T14:41:50.149Z,59.77
2022-09-07T14:44:44.281Z,59.80
2022-09-07T14:47:38.950Z,60.16
2022-09-07T14:50:39.193Z,60.86
2022-09-07T14:53:34.844Z,60.44
2022-09-07T14:56:28.582Z,60.02
2022-09-07T14:59:41.780Z,60.93
2022-09-07T15:02:39.499Z,61.36
2022-09-07T15:05:30.694Z,61.70
2022-09-07T15:08:46.576Z,61.56
2022-09-07T15:11:38.586Z,61.13
2022-09-07T15:14:31.391Z,61.23
2022-09-07T15:17:43.249Z,61.54
2022-09-07T15:20:45.316Z,61.53
2022-09-07T15:23:35.350Z,61.25
2022-09-07T15:29:42.748Z,61.61
2022-09-07T15:32:34.164Z,61.46
2022-09-07T15:35:23.924Z,61.60
2022-09-07T15:41:24.506Z,61.62
2022-09-07T15:44:17.370Z,62.15
2022-09-07T15:50:23.022Z,62.12
2022-09-07T15:56:23.803Z,62.34
2022-09-07T15:59:18.789Z,62.29
2022-09-07T16:05:23.225Z,62.96
2022-09-07T16:08:32.759Z,63.27
2022-09-07T16:11:25.656Z,63.20
2022-09-07T16:14:15.938Z,63.34
2022-09-07T16:20:18.541Z,63.42
2022-09-07T16:23:15.816Z,63.64
2022-09-07T16:26:09.109Z,63.74
2022-09-07T16:28:59.345Z,63.74
2022-09-07T16:34:59.947Z,64.29
2022-09-07T16:41:00.124Z,64.69
2022-09-07T16:43:50.246Z,64.91
2022-09-07T16:46:40.297Z,65.02
2022-09-07T16:49:31.050Z,64.94
2022-09-07T16:52:21.085Z,64.72
2022-09-07T16:55:10.642Z,65.12
2022-09-07T17:01:14.750Z,65.88
2022-09-07T17:04:10.573Z,65.14
2022-09-07T17:07:00.961Z,65.50
2022-09-07T17:09:51.020Z,65.72
2022-09-07T17:12:44.180Z,65.66
2022-09-07T17:15:38.068Z,65.88
2022-09-07T17:21:39.391Z,66.24
2022-09-07T17:24:29.315Z,66.39
2022-09-07T17:27:22.034Z,66.42
2022-09-07T17:30:12.484Z,66.84
2022-09-07T17:33:02.296Z,66.66
2022-09-07T17:35:55.063Z,66.87
2022-09-07T17:41:56.390Z,66.99
2022-09-07T17:44:46.157Z,66.95
2022-09-07T17:47:36.167Z,66.83
2022-09-07T17:50:26.062Z,66.73
2022-09-07T17:53:15.960Z,66.93
2022-09-07T17:56:06.167Z,66.77
2022-09-07T18:00:10.463Z,67.06
2022-09-07T18:02:05.235Z,67.23
2022-09-07T18:04:55.659Z,67.08
2022-09-07T18:07:44.815Z,66.97
2022-09-07T18:13:52.225Z,66.61
2022-09-07T18:16:42.692Z,66.61
2022-09-07T18:19:32.609Z,66.32
2022-09-07T18:22:21.921Z,66.32
2022-09-07T18:25:11.944Z,66.13
2022-09-07T18:31:13.767Z,67.01
2022-09-07T18:34:03.427Z,66.72
2022-09-07T18:36:53.852Z,66.97
2022-09-07T18:39:45.290Z,66.79
2022-09-07T18:42:34.572Z,66.82
2022-09-07T18:45:27.824Z,67.04
2022-09-07T18:48:17.928Z,67.00
2022-09-07T18:51:08.486Z,67.39
2022-09-07T18:54:02.653Z,67.49
2022-09-07T18:56:52.068Z,67.11
2022-09-07T18:59:41.804Z,67.52
2022-09-07T19:02:31.755Z,67.45
2022-09-07T19:08:39.560Z,67.84
2022-09-07T19:11:29.450Z,67.66
2022-09-07T19:14:19.283Z,67.62
2022-09-07T19:17:08.681Z,67.81
2022-09-07T19:19:59.131Z,67.94
2022-09-07T19:22:49.206Z,67.85
2022-09-07T19:25:42.546Z,67.93
2022-09-07T19:28:32.324Z,68.14
2022-09-07T19:31:23.389Z,68.01
2022-09-07T19:34:12.964Z,68.25
2022-09-07T19:37:03.007Z,68.16
2022-09-07T19:39:56.544Z,68.73
2022-09-07T19:42:46.752Z,68.56
2022-09-07T19:45:40.451Z,69.07
2022-09-07T19:48:30.113Z,68.82
2022-09-07T19:51:21.275Z,68.77
2022-09-07T19:54:15.150Z,69.24
2022-09-07T19:57:05.043Z,68.80
2022-09-07T19:59:54.862Z,69.67
2022-09-07T20:02:44.856Z,69.46
2022-09-07T20:05:34.474Z,69.36
2022-09-07T20:08:24.172Z,69.24
2022-09-07T20:11:15.834Z,69.51
2022-09-07T20:14:05.905Z,69.19
2022-09-07T20:16:55.320Z,69.18
2022-09-07T20:19:44.771Z,69.18
2022-09-07T20:22:34.303Z,68.77
2022-09-07T20:25:24.044Z,69.12
2022-09-07T20:28:15.873Z,69.05
2022-09-07T20:31:10.080Z,69.16
2022-09-07T20:33:59.566Z,69.11
2022-09-07T20:36:51.689Z,68.81
2022-09-07T20:39:42.433Z,68.89
2022-09-07T20:42:32.823Z,68.18
2022-09-07T20:45:22.332Z,68.22
2022-09-07T20:48:12.964Z,68.32
2022-09-07T20:51:05.677Z,68.12
2022-09-07T20:53:55.487Z,67.99
2022-09-07T20:56:45.277Z,68.33
2022-09-07T20:59:34.813Z,67.79
2022-09-07T21:02:25.024Z,67.61
2022-09-07T21:05:14.815Z,67.63
2022-09-07T21:08:05.149Z,67.84
2022-09-07T21:10:54.914Z,67.64
2022-09-07T21:13:44.538Z,68.05
2022-09-07T21:16:37.930Z,67.69
2022-09-07T21:19:27.807Z,68.15
2022-09-07T21:22:17.809Z,68.39
2022-09-07T21:25:07.497Z,68.46
2022-09-07T21:27:57.034Z,68.10
2022-09-07T21:30:46.526Z,68.23
2022-09-07T21:33:37.767Z,68.29
2022-09-07T21:36:29.172Z,68.25
2022-09-07T21:39:19.228Z,68.62
2022-09-07T21:42:11.859Z,68.40
2022-09-07T21:45:01.754Z,68.52
2022-09-07T21:47:51.369Z,68.55
2022-09-07T21:50:41.116Z,68.46
2022-09-07T21:53:31.011Z,68.59
2022-09-07T21:56:21.426Z,68.75
2022-09-07T21:59:11.488Z,68.87
2022-09-07T22:02:01.861Z,68.81
2022-09-07T22:04:51.368Z,68.89
2022-09-07T22:07:40.841Z,68.79
2022-09-07T22:10:30.540Z,68.99
2022-09-07T22:13:20.172Z,69.04
2022-09-07T22:16:09.939Z,69.46
2022-09-07T22:19:00.203Z,69.16
2022-09-07T22:21:49.770Z,68.89
2022-09-07T22:24:39.773Z,69.43
2022-09-07T22:27:30.250Z,69.67
2022-09-07T22:30:19.758Z,69.76
2022-09-07T22:33:10.181Z,69.12
2022-09-07T22:36:11.390Z,69.37
2022-09-07T22:39:04.367Z,69.56
2022-09-07T22:41:54.709Z,70.41
2022-09-07T22:44:44.394Z,69.92
2022-09-07T22:47:34.845Z,69.93
2022-09-07T22:50:24.320Z,70.52
2022-09-07T22:53:14.088Z,70.27
2022-09-07T22:56:15.194Z,70.18
2022-09-07T22:59:08.912Z,70.53
2022-09-07T23:01:59.099Z,70.79
2022-09-07T23:04:49.395Z,70.77
2022-09-07T23:07:42.158Z,70.58
2022-09-07T23:10:32.365Z,70.52
2022-09-07T23:13:22.642Z,69.95
2022-09-07T23:16:12.438Z,70.02
2022-09-07T23:19:02.785Z,69.96
2022-09-07T23:21:52.273Z,70.49
2022-09-07T23:24:43.021Z,70.04
2022-09-07T23:27:32.680Z,70.08
2022-09-07T23:30:22.401Z,70.10
2022-09-07T23:33:15.257Z,70.13
2022-09-07T23:36:09.802Z,69.24
2022-09-07T23:39:00.578Z,69.47
2022-09-07T23:41:53.407Z,68.99
2022-09-07T23:44:45.340Z,68.97
2022-09-07T23:47:35.327Z,68.54
2022-09-07T23:50:25.764Z,68.39
2022-09-07T23:53:16.365Z,68.00
2022-09-07T23:56:06.511Z,68.26
2022-09-07T23:58:56.055Z,67.83
